sensor_id;sensor_type;location;lat;lon;timestamp;pressure;altitude;pressure_sealevel;temperature;humidity
5872;BME280;2962;51.312;7.378;2023-04-30T00:02:07;98054.84;;;5.47;100.00
5872;BME280;2962;51.312;7.378;2023-04-30T00:04:33;98054.34;;;5.45;100.00
5872;BME280;2962;51.312;7.378;2023-04-30T00:06:58;98048.00;;;5.32;100.00
5872;BME280;2962;51.312;7.378;2023-04-30T00:09:23;98045.31;;;5.24;100.00
5872;BME280;2962;51.312;7.378;2023-04-30T00:11:49;98054.22;;;5.24;100.00
5872;BME280;2962;51.312;7.378;2023-04-30T00:14:14;98049.59;;;5.25;100.00
5872;BME280;2962;51.312;7.378;2023-04-30T00:16:40;98058.03;;;5.23;100.00
5872;BME280;2962;51.312;7.378;2023-04-30T00:19:06;98060.88;;;5.09;100.00
5872;BME280;2962;51.312;7.378;2023-04-30T00:21:32;98051.50;;;5.07;100.00
5872;BME280;2962;51.312;7.378;2023-04-30T00:23:57;98059.94;;;4.97;100.00
5872;BME280;2962;51.312;7.378;2023-04-30T00:26:24;98072.16;;;5.03;100.00
5872;BME280;2962;51.312;7.378;2023-04-30T00:28:50;98071.06;;;5.04;100.00
5872;BME280;2962;51.312;7.378;2023-04-30T00:31:15;98075.97;;;5.02;100.00
5872;BME280;2962;51.312;7.378;2023-04-30T00:33:40;98069.78;;;5.01;100.00
5872;BME280;2962;51.312;7.378;2023-04-30T00:36:05;98058.03;;;4.88;100.00
5872;BME280;2962;51.312;7.378;2023-04-30T00:38:31;98077.88;;;5.01;100.00
5872;BME280;2962;51.312;7.378;2023-04-30T00:40:56;98069.44;;;4.94;100.00
5872;BME280;2962;51.312;7.378;2023-04-30T00:43:21;98077.41;;;5.08;100.00
5872;BME280;2962;51.312;7.378;2023-04-30T00:45:47;98072.16;;;5.03;100.00
5872;BME280;2962;51.312;7.378;2023-04-30T00:48:12;98063.72;;;4.96;100.00
5872;BME280;2962;51.312;7.378;2023-04-30T00:50:38;98061.19;;;4.90;100.00
5872;BME280;2962;51.312;7.378;2023-04-30T00:53:04;98066.44;;;5.04;100.00
5872;BME280;2962;51.312;7.378;2023-04-30T00:55:30;98071.84;;;5.04;100.00
5872;BME280;2962;51.312;7.378;2023-04-30T00:57:55;98065.66;;;5.04;100.00
5872;BME280;2962;51.312;7.378;2023-04-30T01:00:21;98071.84;;;5.13;100.00
5872;BME280;2962;51.312;7.378;2023-04-30T01:02:47;98058.19;;;5.09;100.00
5872;BME280;2962;51.312;7.378;2023-04-30T01:05:12;98064.06;;;5.03;100.00
5872;BME280;2962;51.312;7.378;2023-04-30T01:07:38;98053.72;;;4.87;100.00
5872;BME280;2962;51.312;7.378;2023-04-30T01:10:09;98071.69;;;5.01;100.00
5872;BME280;2962;51.312;7.378;2023-04-30T01:12:41;98066.28;;;5.01;100.00
5872;BME280;2962;51.312;7.378;2023-04-30T01:15:41;98070.28;;;5.12;100.00
5872;BME280;2962;51.312;7.378;2023-04-30T01:18:36;98060.88;;;5.18;100.00
5872;BME280;2962;51.312;7.378;2023-04-30T01:21:06;98066.63;;;5.08;100.00
5872;BME280;2962;51.312;7.378;2023-04-30T01:26:19;98072.97;;;5.12;100.00
5872;BME280;2962;51.312;7.378;2023-04-30T01:28:52;98067.41;;;5.08;100.00
5872;BME280;2962;51.312;7.378;2023-04-30T01:31:22;98062.78;;;5.09;100.00
5872;BME280;2962;51.312;7.378;2023-04-30T01:33:48;98070.91;;;5.09;100.00
5872;BME280;2962;51.312;7.378;2023-04-30T01:39:24;98082.97;;;5.11;100.00
5872;BME280;2962;51.312;7.378;2023-04-30T01:52:45;98075.81;;;4.98;100.00
5872;BME280;2962;51.312;7.378;2023-04-30T01:55:17;98076.44;;;4.95;100.00
5872;BME280;2962;51.312;7.378;2023-04-30T01:57:56;98063.25;;;4.94;100.00
5872;BME280;2962;51.312;7.378;2023-04-30T02:00:26;98067.38;;;4.82;100.00
5872;BME280;2962;51.312;7.378;2023-04-30T02:02:52;98074.97;;;4.80;100.00
5872;BME280;2962;51.312;7.378;2023-04-30T02:05:17;98071.81;;;4.78;100.00
5872;BME280;2962;51.312;7.378;2023-04-30T02:07:45;98075.47;;;4.82;100.00
5872;BME280;2962;51.312;7.378;2023-04-30T02:10:12;98064.81;;;4.77;100.00
5872;BME280;2962;51.312;7.378;2023-04-30T02:12:38;98073.53;;;4.74;100.00
5872;BME280;2962;51.312;7.378;2023-04-30T02:15:04;98058.75;;;4.72;100.00
5872;BME280;2962;51.312;7.378;2023-04-30T02:17:30;98072.25;;;4.72;100.00
5872;BME280;2962;51.312;7.378;2023-04-30T02:19:56;98062.91;;;4.78;100.00
5872;BME280;2962;51.312;7.378;2023-04-30T02:22:21;98069.91;;;4.79;100.00
5872;BME280;2962;51.312;7.378;2023-04-30T02:24:46;98066.56;;;4.82;100.00
5872;BME280;2962;51.312;7.378;2023-04-30T02:27:12;98066.56;;;4.73;100.00
5872;BME280;2962;51.312;7.378;2023-04-30T02:29:37;98074.34;;;4.75;100.00
5872;BME280;2962;51.312;7.378;2023-04-30T02:32:02;98074.50;;;4.78;100.00
5872;BME280;2962;51.312;7.378;2023-04-30T02:34:28;98081.31;;;4.76;100.00
5872;BME280;2962;51.312;7.378;2023-04-30T02:36:53;98071.13;;;4.64;100.00
5872;BME280;2962;51.312;7.378;2023-04-30T02:39:18;98077.03;;;4.66;100.00
5872;BME280;2962;51.312;7.378;2023-04-30T02:41:44;98073.97;;;4.59;100.00
5872;BME280;2962;51.312;7.378;2023-04-30T02:44:10;98067.78;;;4.50;100.00
5872;BME280;2962;51.312;7.378;2023-04-30T02:46:35;98076.34;;;4.52;100.00
5872;BME280;2962;51.312;7.378;2023-04-30T02:49:01;98077.56;;;4.46;100.00
5872;BME280;2962;51.312;7.378;2023-04-30T02:51:26;98074.41;;;4.44;100.00
5872;BME280;2962;51.312;7.378;2023-04-30T02:53:52;98076.31;;;4.43;100.00
5872;BME280;2962;51.312;7.378;2023-04-30T02:56:17;98073.75;;;4.38;100.00
5872;BME280;2962;51.312;7.378;2023-04-30T02:58:42;98076.91;;;4.31;100.00
5872;BME280;2962;51.312;7.378;2023-04-30T03:01:08;98089.81;;;4.43;100.00
5872;BME280;2962;51.312;7.378;2023-04-30T03:03:34;98082.84;;;4.42;100.00
5872;BME280;2962;51.312;7.378;2023-04-30T03:05:59;98084.69;;;4.33;100.00
5872;BME280;2962;51.312;7.378;2023-04-30T03:08:25;98082.16;;;4.36;100.00
5872;BME280;2962;51.312;7.378;2023-04-30T03:10:51;98078.00;;;4.30;100.00
5872;BME280;2962;51.312;7.378;2023-04-30T03:13:16;98071.34;;;4.28;100.00
5872;BME280;2962;51.312;7.378;2023-04-30T03:15:42;98072.47;;;4.27;100.00
5872;BME280;2962;51.312;7.378;2023-04-30T03:18:07;98071.94;;;4.16;100.00
5872;BME280;2962;51.312;7.378;2023-04-30T03:20:32;98080.19;;;4.20;100.00
5872;BME280;2962;51.312;7.378;2023-04-30T03:22:58;98066.81;;;4.14;100.00
5872;BME280;2962;51.312;7.378;2023-04-30T03:25:23;98078.75;;;4.22;100.00
5872;BME280;2962;51.312;7.378;2023-04-30T03:27:48;98079.09;;;4.29;100.00
5872;BME280;2962;51.312;7.378;2023-04-30T03:30:13;98071.78;;;4.21;100.00
5872;BME280;2962;51.312;7.378;2023-04-30T03:32:39;98082.44;;;4.26;100.00
5872;BME280;2962;51.312;7.378;2023-04-30T03:35:05;98081.44;;;4.13;100.00
5872;BME280;2962;51.312;7.378;2023-04-30T03:37:30;98075.69;;;4.06;100.00
5872;BME280;2962;51.312;7.378;2023-04-30T03:39:55;98066.75;;;3.97;100.00
5872;BME280;2962;51.312;7.378;2023-04-30T03:42:21;98070.97;;;4.12;100.00
5872;BME280;2962;51.312;7.378;2023-04-30T03:44:46;98070.47;;;4.10;100.00
5872;BME280;2962;51.312;7.378;2023-04-30T03:47:11;98068.13;;;4.17;100.00
5872;BME280;2962;51.312;7.378;2023-04-30T03:49:37;98062.22;;;4.15;100.00
5872;BME280;2962;51.312;7.378;2023-04-30T03:52:02;98061.25;;;4.11;100.00
5872;BME280;2962;51.312;7.378;2023-04-30T03:54:29;98069.34;;;4.11;100.00
5872;BME280;2962;51.312;7.378;2023-04-30T03:56:55;98064.13;;;4.14;100.00
5872;BME280;2962;51.312;7.378;2023-04-30T03:59:20;98062.56;;;4.22;100.00
5872;BME280;2962;51.312;7.378;2023-04-30T04:01:46;98048.13;;;4.18;100.00
5872;BME280;2962;51.312;7.378;2023-04-30T04:04:11;98041.16;;;4.17;100.00
5872;BME280;2962;51.312;7.378;2023-04-30T04:06:37;98053.66;;;4.13;100.00
5872;BME280;2962;51.312;7.378;2023-04-30T04:09:02;98044.28;;;4.10;100.00
5872;BME280;2962;51.312;7.378;2023-04-30T04:11:28;98059.84;;;4.13;100.00
5872;BME280;2962;51.312;7.378;2023-04-30T04:13:54;98067.78;;;4.19;100.00
5872;BME280;2962;51.312;7.378;2023-04-30T04:16:19;98062.22;;;4.15;100.00
5872;BME280;2962;51.312;7.378;2023-04-30T04:18:45;98067.94;;;4.13;100.00
5872;BME280;2962;51.312;7.378;2023-04-30T04:21:10;98060.47;;;4.10;100.00
5872;BME280;2962;51.312;7.378;2023-04-30T04:23:36;98064.81;;;4.20;100.00
5872;BME280;2962;51.312;7.378;2023-04-30T04:26:01;98067.88;;;4.36;100.00
5872;BME280;2962;51.312;7.378;2023-04-30T04:28:27;98076.28;;;4.34;100.00
5872;BME280;2962;51.312;7.378;2023-04-30T04:30:52;98076.28;;;4.34;100.00
5872;BME280;2962;51.312;7.378;2023-04-30T04:33:18;98074.81;;;4.28;100.00
5872;BME280;2962;51.312;7.378;2023-04-30T04:35:43;98086.94;;;4.39;100.00
5872;BME280;2962;51.312;7.378;2023-04-30T04:38:08;98085.34;;;4.38;100.00
5872;BME280;2962;51.312;7.378;2023-04-30T04:40:34;98082.47;;;4.35;100.00
5872;BME280;2962;51.312;7.378;2023-04-30T04:43:01;98078.34;;;4.37;100.00
5872;BME280;2962;51.312;7.378;2023-04-30T04:45:26;98074.25;;;4.40;100.00
5872;BME280;2962;51.312;7.378;2023-04-30T04:47:51;98084.75;;;4.50;100.00
5872;BME280;2962;51.312;7.378;2023-04-30T04:50:17;98081.88;;;4.47;100.00
5872;BME280;2962;51.312;7.378;2023-04-30T04:52:42;98094.28;;;4.56;100.00
5872;BME280;2962;51.312;7.378;2023-04-30T04:55:08;98080.94;;;4.51;100.00
5872;BME280;2962;51.312;7.378;2023-04-30T04:57:33;98094.47;;;4.60;100.00
5872;BME280;2962;51.312;7.378;2023-04-30T04:59:59;98093.34;;;4.61;100.00
5872;BME280;2962;51.312;7.378;2023-04-30T05:02:24;98092.44;;;4.65;100.00
5872;BME280;2962;51.312;7.378;2023-04-30T05:04:49;98102.91;;;4.76;100.00
5872;BME280;2962;51.312;7.378;2023-04-30T05:07:18;98106.41;;;4.76;100.00
5872;BME280;2962;51.312;7.378;2023-04-30T05:09:44;98089.72;;;4.65;100.00
5872;BME280;2962;51.312;7.378;2023-04-30T05:12:11;98099.91;;;4.77;100.00
5872;BME280;2962;51.312;7.378;2023-04-30T05:14:36;98103.91;;;4.88;100.00
5872;BME280;2962;51.312;7.378;2023-04-30T05:17:01;98111.38;;;4.92;100.00
5872;BME280;2962;51.312;7.378;2023-04-30T05:19:27;98101.53;;;4.96;100.00
5872;BME280;2962;51.312;7.378;2023-04-30T05:21:52;98100.44;;;4.97;100.00
5872;BME280;2962;51.312;7.378;2023-04-30T05:24:17;98092.00;;;5.07;100.00
5872;BME280;2962;51.312;7.378;2023-04-30T05:26:43;98102.69;;;5.12;100.00
5872;BME280;2962;51.312;7.378;2023-04-30T05:29:08;98083.94;;;5.16;100.00
5872;BME280;2962;51.312;7.378;2023-04-30T05:31:35;98099.19;;;5.20;100.00
5872;BME280;2962;51.312;7.378;2023-04-30T05:34:00;98105.53;;;5.24;100.00
5872;BME280;2962;51.312;7.378;2023-04-30T05:36:26;98105.72;;;5.36;100.00
5872;BME280;2962;51.312;7.378;2023-04-30T05:38:52;98110.94;;;5.42;100.00
5872;BME280;2962;51.312;7.378;2023-04-30T05:41:17;98107.94;;;5.52;100.00
5872;BME280;2962;51.312;7.378;2023-04-30T05:43:43;98109.84;;;5.51;100.00
5872;BME280;2962;51.312;7.378;2023-04-30T05:46:08;98107.59;;;5.53;100.00
5872;BME280;2962;51.312;7.378;2023-04-30T05:48:33;98105.41;;;5.47;100.00
5872;BME280;2962;51.312;7.378;2023-04-30T05:50:59;98113.03;;;5.62;100.00
5872;BME280;2962;51.312;7.378;2023-04-30T05:53:24;98112.69;;;5.63;100.00
5872;BME280;2962;51.312;7.378;2023-04-30T05:55:49;98116.34;;;5.85;100.00
5872;BME280;2962;51.312;7.378;2023-04-30T05:58:15;98098.84;;;5.82;100.00
5872;BME280;2962;51.312;7.378;2023-04-30T06:00:40;98111.56;;;5.91;100.00
5872;BME280;2962;51.312;7.378;2023-04-30T06:03:05;98121.13;;;5.97;100.00
5872;BME280;2962;51.312;7.378;2023-04-30T06:05:31;98123.34;;;5.95;100.00
5872;BME280;2962;51.312;7.378;2023-04-30T06:07:57;98121.59;;;5.99;100.00
5872;BME280;2962;51.312;7.378;2023-04-30T06:10:22;98111.84;;;6.15;100.00
5872;BME280;2962;51.312;7.378;2023-04-30T06:12:48;98120.41;;;6.26;100.00
5872;BME280;2962;51.312;7.378;2023-04-30T06:15:13;98123.56;;;6.36;100.00
5872;BME280;2962;51.312;7.378;2023-04-30T06:17:38;98108.28;;;6.32;100.00
5872;BME280;2962;51.312;7.378;2023-04-30T06:20:05;98117.31;;;6.45;100.00
5872;BME280;2962;51.312;7.378;2023-04-30T06:22:32;98113.63;;;6.49;100.00
5872;BME280;2962;51.312;7.378;2023-04-30T06:24:57;98100.44;;;6.48;100.00
5872;BME280;2962;51.312;7.378;2023-04-30T06:27:24;98117.25;;;6.62;100.00
5872;BME280;2962;51.312;7.378;2023-04-30T06:29:52;98123.59;;;6.66;100.00
5872;BME280;2962;51.312;7.378;2023-04-30T06:32:17;98111.00;;;6.70;100.00
5872;BME280;2962;51.312;7.378;2023-04-30T06:34:43;98104.03;;;6.90;100.00
5872;BME280;2962;51.312;7.378;2023-04-30T06:37:08;98112.78;;;6.96;100.00
5872;BME280;2962;51.312;7.378;2023-04-30T06:39:33;98114.31;;;7.05;100.00
5872;BME280;2962;51.312;7.378;2023-04-30T06:41:58;98117.75;;;7.15;100.00
5872;BME280;2962;51.312;7.378;2023-04-30T06:44:24;98115.00;;;7.23;100.00
5872;BME280;2962;51.312;7.378;2023-04-30T06:46:49;98116.78;;;7.40;100.00
5872;BME280;2962;51.312;7.378;2023-04-30T06:49:14;98105.84;;;7.49;100.00
5872;BME280;2962;51.312;7.378;2023-04-30T06:51:40;98120.88;;;7.67;100.00
5872;BME280;2962;51.312;7.378;2023-04-30T06:54:05;98112.31;;;7.77;100.00
5872;BME280;2962;51.312;7.378;2023-04-30T06:56:32;98116.56;;;7.99;100.00
5872;BME280;2962;51.312;7.378;2023-04-30T06:58:57;98116.97;;;8.22;100.00
5872;BME280;2962;51.312;7.378;2023-04-30T07:01:22;98120.16;;;8.37;100.00
5872;BME280;2962;51.312;7.378;2023-04-30T07:03:48;98112.19;;;8.52;100.00
5872;BME280;2962;51.312;7.378;2023-04-30T07:06:13;98109.16;;;8.66;100.00
5872;BME280;2962;51.312;7.378;2023-04-30T07:08:38;98112.66;;;8.79;100.00
5872;BME280;2962;51.312;7.378;2023-04-30T07:11:05;98104.28;;;8.84;100.00
5872;BME280;2962;51.312;7.378;2023-04-30T07:13:31;98098.84;;;8.96;100.00
5872;BME280;2962;51.312;7.378;2023-04-30T07:15:56;98100.84;;;9.24;100.00
5872;BME280;2962;51.312;7.378;2023-04-30T07:18:22;98089.81;;;9.33;100.00
5872;BME280;2962;51.312;7.378;2023-04-30T07:20:47;98096.31;;;9.56;100.00
5872;BME280;2962;51.312;7.378;2023-04-30T07:23:12;98091.88;;;9.92;100.00
5872;BME280;2962;51.312;7.378;2023-04-30T07:25:38;98071.69;;;9.93;100.00
5872;BME280;2962;51.312;7.378;2023-04-30T07:28:12;98092.66;;;10.36;100.00
5872;BME280;2962;51.312;7.378;2023-04-30T07:30:38;98090.22;;;10.63;100.00
5872;BME280;2962;51.312;7.378;2023-04-30T07:33:03;98084.56;;;10.71;100.00
5872;BME280;2962;51.312;7.378;2023-04-30T07:35:28;98087.19;;;10.99;100.00
5872;BME280;2962;51.312;7.378;2023-04-30T07:37:55;98071.81;;;11.27;100.00
5872;BME280;2962;51.312;7.378;2023-04-30T07:40:20;98079.22;;;11.45;100.00
5872;BME280;2962;51.312;7.378;2023-04-30T07:42:46;98073.31;;;11.63;100.00
5872;BME280;2962;51.312;7.378;2023-04-30T07:45:11;98080.63;;;11.78;100.00
5872;BME280;2962;51.312;7.378;2023-04-30T07:47:37;98071.81;;;11.65;100.00
5872;BME280;2962;51.312;7.378;2023-04-30T07:50:03;98080.41;;;11.67;100.00
5872;BME280;2962;51.312;7.378;2023-04-30T07:52:28;98081.50;;;11.82;100.00
5872;BME280;2962;51.312;7.378;2023-04-30T07:54:53;98097.34;;;11.92;100.00
5872;BME280;2962;51.312;7.378;2023-04-30T07:57:19;98094.22;;;11.94;100.00
5872;BME280;2962;51.312;7.378;2023-04-30T07:59:44;98095.72;;;12.11;100.00
5872;BME280;2962;51.312;7.378;2023-04-30T08:02:09;98095.75;;;12.34;100.00
5872;BME280;2962;51.312;7.378;2023-04-30T08:04:35;98102.41;;;12.13;100.00
5872;BME280;2962;51.312;7.378;2023-04-30T08:07:00;98103.53;;;12.55;100.00
5872;BME280;2962;51.312;7.378;2023-04-30T08:09:26;98092.09;;;12.49;100.00
5872;BME280;2962;51.312;7.378;2023-04-30T08:11:51;98089.66;;;12.44;100.00
5872;BME280;2962;51.312;7.378;2023-04-30T08:14:17;98099.53;;;12.06;100.00
5872;BME280;2962;51.312;7.378;2023-04-30T08:16:43;98090.88;;;12.24;100.00
5872;BME280;2962;51.312;7.378;2023-04-30T08:19:08;98106.25;;;12.55;100.00
5872;BME280;2962;51.312;7.378;2023-04-30T08:21:34;98095.31;;;12.32;100.00
5872;BME280;2962;51.312;7.378;2023-04-30T08:23:59;98106.41;;;12.19;100.00
5872;BME280;2962;51.312;7.378;2023-04-30T08:26:25;98110.59;;;12.13;100.00
5872;BME280;2962;51.312;7.378;2023-04-30T08:28:50;98103.25;;;12.17;100.00
5872;BME280;2962;51.312;7.378;2023-04-30T08:31:16;98105.94;;;12.37;100.00
5872;BME280;2962;51.312;7.378;2023-04-30T08:33:41;98102.41;;;12.59;100.00
5872;BME280;2962;51.312;7.378;2023-04-30T08:36:07;98104.78;;;12.84;100.00
5872;BME280;2962;51.312;7.378;2023-04-30T08:38:32;98106.50;;;13.22;100.00
5872;BME280;2962;51.312;7.378;2023-04-30T08:43:33;98113.03;;;13.40;100.00
5872;BME280;2962;51.312;7.378;2023-04-30T08:45:59;98115.28;;;13.31;100.00
5872;BME280;2962;51.312;7.378;2023-04-30T08:48:27;98115.03;;;13.43;100.00
5872;BME280;2962;51.312;7.378;2023-04-30T08:50:52;98108.94;;;13.54;100.00
5872;BME280;2962;51.312;7.378;2023-04-30T08:53:18;98114.75;;;13.52;100.00
5872;BME280;2962;51.312;7.378;2023-04-30T08:55:45;98099.97;;;13.57;100.00
5872;BME280;2962;51.312;7.378;2023-04-30T08:58:11;98109.94;;;14.06;100.00
5872;BME280;2962;51.312;7.378;2023-04-30T09:00:37;98111.09;;;14.05;100.00
5872;BME280;2962;51.312;7.378;2023-04-30T09:03:03;98109.88;;;14.02;100.00
5872;BME280;2962;51.312;7.378;2023-04-30T09:05:29;98091.09;;;14.01;100.00
5872;BME280;2962;51.312;7.378;2023-04-30T09:07:55;98106.06;;;14.10;100.00
5872;BME280;2962;51.312;7.378;2023-04-30T09:10:21;98101.97;;;14.31;100.00
5872;BME280;2962;51.312;7.378;2023-04-30T09:13:00;98112.19;;;14.75;100.00
5872;BME280;2962;51.312;7.378;2023-04-30T09:15:26;98100.91;;;14.87;100.00
5872;BME280;2962;51.312;7.378;2023-04-30T09:18:15;98104.19;;;15.03;100.00
5872;BME280;2962;51.312;7.378;2023-04-30T09:21:00;98093.75;;;15.27;100.00
5872;BME280;2962;51.312;7.378;2023-04-30T09:23:27;98088.31;;;14.79;100.00
5872;BME280;2962;51.312;7.378;2023-04-30T09:25:53;98086.59;;;15.11;100.00
5872;BME280;2962;51.312;7.378;2023-04-30T09:28:19;98083.91;;;15.19;100.00
5872;BME280;2962;51.312;7.378;2023-04-30T09:30:48;98089.75;;;15.17;100.00
5872;BME280;2962;51.312;7.378;2023-04-30T09:33:15;98092.69;;;14.87;100.00
5872;BME280;2962;51.312;7.378;2023-04-30T09:35:40;98084.91;;;14.93;100.00
5872;BME280;2962;51.312;7.378;2023-04-30T09:38:06;98074.84;;;15.11;100.00
5872;BME280;2962;51.312;7.378;2023-04-30T09:43:02;98080.25;;;15.73;100.00
5872;BME280;2962;51.312;7.378;2023-04-30T09:45:38;98072.72;;;15.63;100.00
5872;BME280;2962;51.312;7.378;2023-04-30T09:48:04;98081.19;;;15.22;100.00
5872;BME280;2962;51.312;7.378;2023-04-30T09:50:36;98071.09;;;15.48;100.00
5872;BME280;2962;51.312;7.378;2023-04-30T09:53:07;98081.47;;;15.83;100.00
5872;BME280;2962;51.312;7.378;2023-04-30T09:55:35;98075.53;;;15.67;100.00
5872;BME280;2962;51.312;7.378;2023-04-30T09:58:05;98066.34;;;15.37;100.00
5872;BME280;2962;51.312;7.378;2023-04-30T10:00:35;98054.75;;;15.69;100.00
5872;BME280;2962;51.312;7.378;2023-04-30T10:03:06;98068.03;;;15.63;100.00
5872;BME280;2962;51.312;7.378;2023-04-30T10:05:43;98065.75;;;15.83;100.00
5872;BME280;2962;51.312;7.378;2023-04-30T10:08:27;98064.28;;;16.22;100.00
5872;BME280;2962;51.312;7.378;2023-04-30T10:11:01;98072.22;;;16.77;100.00
5872;BME280;2962;51.312;7.378;2023-04-30T10:13:30;98063.56;;;16.96;100.00
5872;BME280;2962;51.312;7.378;2023-04-30T10:15:58;98063.91;;;17.20;100.00
5872;BME280;2962;51.312;7.378;2023-04-30T10:18:31;98057.63;;;16.94;100.00
5872;BME280;2962;51.312;7.378;2023-04-30T10:20:58;98053.31;;;17.04;100.00
5872;BME280;2962;51.312;7.378;2023-04-30T10:23:28;98056.75;;;17.40;100.00
5872;BME280;2962;51.312;7.378;2023-04-30T10:25:55;98058.03;;;16.96;100.00
5872;BME280;2962;51.312;7.378;2023-04-30T10:28:22;98048.53;;;16.01;100.00
5872;BME280;2962;51.312;7.378;2023-04-30T10:30:49;98041.91;;;16.20;100.00
5872;BME280;2962;51.312;7.378;2023-04-30T10:33:27;98035.63;;;16.58;100.00
5872;BME280;2962;51.312;7.378;2023-04-30T10:35:59;98050.16;;;16.98;100.00
5872;BME280;2962;51.312;7.378;2023-04-30T10:38:28;98036.31;;;17.34;100.00
5872;BME280;2962;51.312;7.378;2023-04-30T10:40:55;98043.72;;;17.55;100.00
5872;BME280;2962;51.312;7.378;2023-04-30T10:43:25;98042.38;;;17.95;100.00
5872;BME280;2962;51.312;7.378;2023-04-30T10:45:51;98033.94;;;18.20;100.00
5872;BME280;2962;51.312;7.378;2023-04-30T10:48:16;98033.09;;;18.27;100.00
5872;BME280;2962;51.312;7.378;2023-04-30T10:50:51;98034.72;;;18.21;100.00
5872;BME280;2962;51.312;7.378;2023-04-30T10:53:18;98031.66;;;18.08;100.00
5872;BME280;2962;51.312;7.378;2023-04-30T10:55:56;98025.50;;;18.45;100.00
5872;BME280;2962;51.312;7.378;2023-04-30T10:58:26;98023.41;;;17.09;100.00
5872;BME280;2962;51.312;7.378;2023-04-30T11:01:21;98026.69;;;17.81;100.00
5872;BME280;2962;51.312;7.378;2023-04-30T11:04:05;98022.22;;;18.05;100.00
5872;BME280;2962;51.312;7.378;2023-04-30T11:12:04;98018.34;;;18.96;100.00
5872;BME280;2962;51.312;7.378;2023-04-30T11:14:33;98015.47;;;18.62;100.00
5872;BME280;2962;51.312;7.378;2023-04-30T11:16:59;98001.78;;;19.31;100.00
5872;BME280;2962;51.312;7.378;2023-04-30T11:19:27;98010.53;;;19.56;100.00
5872;BME280;2962;51.312;7.378;2023-04-30T11:24:50;98007.38;;;19.58;100.00
5872;BME280;2962;51.312;7.378;2023-04-30T11:27:23;97992.81;;;19.23;100.00
5872;BME280;2962;51.312;7.378;2023-04-30T11:29:49;98016.03;;;18.91;100.00
5872;BME280;2962;51.312;7.378;2023-04-30T11:32:17;97997.59;;;17.66;100.00
5872;BME280;2962;51.312;7.378;2023-04-30T11:34:43;97997.91;;;18.45;100.00
5872;BME280;2962;51.312;7.378;2023-04-30T11:37:11;98003.78;;;19.30;100.00
5872;BME280;2962;51.312;7.378;2023-04-30T11:39:38;97993.19;;;19.86;100.00
5872;BME280;2962;51.312;7.378;2023-04-30T11:42:05;97995.13;;;19.89;100.00
5872;BME280;2962;51.312;7.378;2023-04-30T11:44:31;97982.34;;;19.07;100.00
5872;BME280;2962;51.312;7.378;2023-04-30T11:46:56;97984.50;;;19.88;100.00
5872;BME280;2962;51.312;7.378;2023-04-30T11:49:22;97998.16;;;19.37;100.00
5872;BME280;2962;51.312;7.378;2023-04-30T11:51:50;97998.03;;;19.14;100.00
5872;BME280;2962;51.312;7.378;2023-04-30T11:54:17;97998.31;;;18.89;100.00
5872;BME280;2962;51.312;7.378;2023-04-30T11:56:47;97988.63;;;17.48;100.00
5872;BME280;2962;51.312;7.378;2023-04-30T11:59:13;97996.59;;;17.28;100.00
5872;BME280;2962;51.312;7.378;2023-04-30T12:01:38;97984.94;;;16.77;100.00
5872;BME280;2962;51.312;7.378;2023-04-30T12:04:04;97974.63;;;17.06;100.00
5872;BME280;2962;51.312;7.378;2023-04-30T12:06:31;97988.28;;;18.16;100.00
5872;BME280;2962;51.312;7.378;2023-04-30T12:09:00;97974.97;;;19.62;100.00
5872;BME280;2962;51.312;7.378;2023-04-30T12:11:29;97985.13;;;19.72;100.00
5872;BME280;2962;51.312;7.378;2023-04-30T12:14:00;97981.06;;;20.31;100.00
5872;BME280;2962;51.312;7.378;2023-04-30T12:16:41;97982.56;;;20.12;100.00
5872;BME280;2962;51.312;7.378;2023-04-30T12:19:08;97972.97;;;21.30;100.00
5872;BME280;2962;51.312;7.378;2023-04-30T12:21:34;97971.91;;;21.44;100.00
5872;BME280;2962;51.312;7.378;2023-04-30T12:23:59;97977.44;;;20.10;100.00
5872;BME280;2962;51.312;7.378;2023-04-30T12:26:33;97972.44;;;20.52;100.00
5872;BME280;2962;51.312;7.378;2023-04-30T12:29:02;97973.22;;;20.76;100.00
5872;BME280;2962;51.312;7.378;2023-04-30T12:31:30;97970.97;;;20.44;100.00
5872;BME280;2962;51.312;7.378;2023-04-30T12:33:56;97971.31;;;21.13;99.22
5872;BME280;2962;51.312;7.378;2023-04-30T12:36:28;97971.94;;;21.97;100.00
5872;BME280;2962;51.312;7.378;2023-04-30T12:39:01;97972.59;;;22.21;94.73
5872;BME280;2962;51.312;7.378;2023-04-30T12:41:28;97962.59;;;22.56;92.07
5872;BME280;2962;51.312;7.378;2023-04-30T12:44:15;97951.09;;;23.03;84.91
5872;BME280;2962;51.312;7.378;2023-04-30T12:46:41;97955.75;;;23.48;87.31
5872;BME280;2962;51.312;7.378;2023-04-30T12:49:06;97964.38;;;23.24;80.76
5872;BME280;2962;51.312;7.378;2023-04-30T12:51:34;97957.13;;;23.14;86.87
5872;BME280;2962;51.312;7.378;2023-04-30T12:53:59;97954.28;;;23.43;69.91
5872;BME280;2962;51.312;7.378;2023-04-30T12:56:25;97960.78;;;23.53;78.70
5872;BME280;2962;51.312;7.378;2023-04-30T12:58:50;97950.50;;;22.79;67.96
5872;BME280;2962;51.312;7.378;2023-04-30T13:01:18;97960.81;;;22.16;84.41
5872;BME280;2962;51.312;7.378;2023-04-30T13:03:44;97960.31;;;22.83;83.39
5872;BME280;2962;51.312;7.378;2023-04-30T13:06:09;97952.47;;;23.78;85.42
5872;BME280;2962;51.312;7.378;2023-04-30T13:08:35;97944.41;;;25.36;58.69
5872;BME280;2962;51.312;7.378;2023-04-30T13:11:00;97951.22;;;24.78;58.39
5872;BME280;2962;51.312;7.378;2023-04-30T13:13:26;97941.78;;;24.75;60.46
5872;BME280;2962;51.312;7.378;2023-04-30T13:15:51;97933.28;;;24.79;63.40
5872;BME280;2962;51.312;7.378;2023-04-30T13:18:17;97933.75;;;24.30;65.72
5872;BME280;2962;51.312;7.378;2023-04-30T13:20:42;97939.78;;;24.03;69.53
5872;BME280;2962;51.312;7.378;2023-04-30T13:23:08;97939.88;;;24.12;58.60
5872;BME280;2962;51.312;7.378;2023-04-30T13:25:34;97937.41;;;24.52;63.26
5872;BME280;2962;51.312;7.378;2023-04-30T13:28:00;97937.94;;;24.60;57.50
5872;BME280;2962;51.312;7.378;2023-04-30T13:30:26;97936.59;;;24.52;59.17
5872;BME280;2962;51.312;7.378;2023-04-30T13:32:51;97925.03;;;23.26;60.29
5872;BME280;2962;51.312;7.378;2023-04-30T13:35:18;97927.75;;;23.13;67.48
5872;BME280;2962;51.312;7.378;2023-04-30T13:37:43;97924.06;;;23.45;73.17
5872;BME280;2962;51.312;7.378;2023-04-30T13:40:09;97919.41;;;23.93;68.36
5872;BME280;2962;51.312;7.378;2023-04-30T13:42:36;97920.69;;;24.74;61.28
5872;BME280;2962;51.312;7.378;2023-04-30T13:45:03;97915.84;;;24.05;63.24
5872;BME280;2962;51.312;7.378;2023-04-30T13:47:28;97919.16;;;24.39;61.82